Terminal Aerodrome Forecast
Issued by NWS

Home | Current Version | Previous Version | Text Only | Print | Product List | Glossary On
Versions: 1 2 3 4 5 6 7 8 9 10 11 12 13 14 15 16 17 18 19 20 21 22 23 24 25 26 27 28 29 30 31 32 33 34 35 36 37 38
000
FTUS42 KMHX 290531
TAFOAJ
TAF
KOAJ 290531Z 2906/3006 18006KT P6SM VCSH OVC009
     FM291000 18005KT 6SM SHRA SCT008 BKN015
     FM291600 19010G17KT 5SM SHRA VCTS SCT025 BKN040CB
     FM300000 19007KT P6SM VCSH BKN040
     FM300300 19005KT P6SM VCSH BKN015
     AMD LTD TO CLD VIS AND WIND=

USA.gov is the U.S. government's official web portal to all federal, state and local government web resources and services.